Manchester Center, Vermont
Current Conditions -  °F | °C
As of 9:36 AM on Sunday 23 Nov 2014 (Local Time) from KDDH Reporting Station
Haze Haze  
Wind Chill: 43°   Ceiling: 2700
Heat Index: 43°   Visibility: 3mi
Dew Point: 40°   Wind: 0mph
Humidity: 89%   Direction: NA
Pressure: 30.12"   Gusts: NA
Location:  43.18°N, 73.04°W
Report Text: KDDH 231436Z AUTO 00000KT 3SM BR OVC027 06/04 A3012 RMK AO2 T00610044
Loading
Personal Weather Stations






























Interactive Weather Map New forecast layout! Learn more

10-Day Weather Forecast

Advertisements
Track Severe Weather on mobile